Terrell, TX

11:13 PM CST on December 26, 2014 (GMT -0600)
Rockwall | Change Station
CLOSE
Current Station
Airport
Location: Rockwall,
Elevation: 571 ft
Nearby Weather Stations

Elev 571 ft 32.93 °N, 96.43 °W | Updated 18 minutes ago

Overcast
Overcast
60 °F
Feels Like 60 °F
N
6
Wind Variable Wind from ESE

Today
High -- | Low -- °F
--% Chance of Precip.
Yesterday
High -- | Low -- °F
Precip. -- in
7:25 AM 5:26 PM
Waxing Crescent, 32% visible
Pressure 29.99 in
Visibility 1.8 miles
Clouds Overcast 200 ft
Dew Point 60 °F
Humidity 100%
Rainfall 0.01 in
Snow Depth Not available.
UV 0 out of 12
Pollen 10.50 out of 12
Air Quality Not available.
Flu Activity Not available.
METAR KF46 270455Z AUTO 11005KT 1 3/4SM BR OVC002 16/16 A2999 RMK AO2 T01580158

More Conditions Fewer Conditions

Pressure 29.99 in
Visibility 1.8 miles
Clouds Overcast 200 ft
Dew Point 60 °F
Humidity 100%
Rainfall 0.01 in
Snow Depth Not available.
UV 0 out of 12
Pollen 10.50 out of 12
Air Quality Not available.
Flu Activity Not available.
METAR KF46 270455Z AUTO 11005KT 1 3/4SM BR OVC002 16/16 A2999 RMK AO2 T01580158

More Conditions Fewer Conditions

Nowcast | as of 10:12 PM CST on December 26, 2014

Areas of light rain or drizzle will be possible this evening across north and central Texas. Total rainfall amounts of less than one tenth of an inch can be expected. However...most areas will not see any accumulation. In addition a few locations may see some patchy dense fog that will reduce visibilities below a half mile.

×

10-Day Weather Forecast

Almanac

Astronomy

Dec. 26, 2014 Rise Set
Actual Time
Civil Twilight
Nautical Twilight
Astronomical Twilight
Moon
Length of Visible Light
Length of Day
Tomorrow will be .
, % of the Moon is Illuminated

Today's Extremes

State Highs State Lows

Community

WunderPhotos

Upload Photos

1,780,848 photos uploaded!

WunderBlogs® & News

Nearby

Air Quality

  Air Quality AQ Index Pollutant
Not available.

Snow Depth

Station Depth Elevation

Earthquake Activity

City Distance Mag. Time & Date
Minimum magnitude displayed is 2.5.

Coastal Water Temperatures

Place Temperature

Nearby Weather Stations